KRH241 EGWU-LXGB
Flight info
| Callsign | KRH241 |
|---|---|
| Flight time | N/A |
| Altitude | 37000 |
| Route | SAM M195 MARUK N621 LELNA/N0449F390 DCT NOVAN DCT DELOG DCT CRISA N864 PIMOS |
| Aircraft | A21N/M-SDE3FGHIRWY/LB1 |
Departure
| Time | N/A |
|---|---|
| Airport | RAF Northolt (EGWU) |
Arrival
| Time | 2026-04-27 16:20 |
|---|---|
| Airport | Gibraltar Airport (LXGB) |
| Time | Latitude | Longitude | Altitude | Speed | Heading |
|---|---|---|---|---|---|
| 2026-04-27 16:07 | 36.19381 | -4.89560 | 7307 ft | 277 kts | 177° |
| 2026-04-27 16:08 | 36.16849 | -4.89432 | 6793 ft | 274 kts | 177° |
| 2026-04-27 16:08 | 36.14806 | -4.89689 | 6343 ft | 274 kts | 194° |
| 2026-04-27 16:08 | 36.12704 | -4.90867 | 5884 ft | 272 kts | 207° |
| 2026-04-27 16:08 | 36.10745 | -4.92288 | 5427 ft | 271 kts | 208° |
| 2026-04-27 16:09 | 36.08823 | -4.93702 | 4963 ft | 270 kts | 207° |
| 2026-04-27 16:09 | 36.04377 | -4.96890 | 3915 ft | 268 kts | 205° |
| 2026-04-27 16:09 | 36.02438 | -4.98264 | 3462 ft | 268 kts | 204° |
| 2026-04-27 16:10 | 35.99824 | -5.02772 | 2957 ft | 291 kts | 266° |
| 2026-04-27 16:10 | 35.99897 | -5.07330 | 2960 ft | 291 kts | 272° |
| 2026-04-27 16:11 | 35.99959 | -5.10137 | 2968 ft | 291 kts | 271° |
| 2026-04-27 16:11 | 36.00004 | -5.15156 | 2946 ft | 291 kts | 271° |
| 2026-04-27 16:12 | 36.00014 | -5.19872 | 2936 ft | 262 kts | 270° |
| 2026-04-27 16:12 | 36.00014 | -5.22077 | 2926 ft | 246 kts | 270° |
| 2026-04-27 16:12 | 36.00011 | -5.26022 | 2957 ft | 211 kts | 270° |
| 2026-04-27 16:13 | 36.00008 | -5.27810 | 2965 ft | 214 kts | 270° |
| 2026-04-27 16:13 | 36.00004 | -5.31368 | 2661 ft | 205 kts | 270° |
| 2026-04-27 16:13 | 36.00003 | -5.32836 | 2537 ft | 200 kts | 270° |
| 2026-04-27 16:14 | 36.00004 | -5.36373 | 1981 ft | 194 kts | 269° |
| 2026-04-27 16:14 | 36.00041 | -5.39433 | 1502 ft | 175 kts | 281° |
| 2026-04-27 16:15 | 36.01426 | -5.40618 | 1442 ft | 125 kts | 22° |
| 2026-04-27 16:15 | 36.03166 | -5.40348 | 1452 ft | 129 kts | 17° |
| 2026-04-27 16:16 | 36.04970 | -5.40298 | 1465 ft | 131 kts | 13° |
| 2026-04-27 16:16 | 36.06559 | -5.40346 | 1454 ft | 123 kts | 12° |
| 2026-04-27 16:17 | 36.08273 | -5.40423 | 1430 ft | 119 kts | 11° |
| 2026-04-27 16:17 | 36.09943 | -5.40495 | 851 ft | 120 kts | 8° |
| 2026-04-27 16:18 | 36.11595 | -5.40597 | 656 ft | 120 kts | 6° |
| 2026-04-27 16:18 | 36.13262 | -5.40704 | 756 ft | 121 kts | 13° |
| 2026-04-27 16:19 | 36.14065 | -5.40479 | 813 ft | 114 kts | 31° |
| 2026-04-27 16:19 | 36.14675 | -5.39936 | 729 ft | 106 kts | 55° |
| 2026-04-27 16:20 | 36.15034 | -5.37336 | 255 ft | 108 kts | 86° |
| 2026-04-27 16:20 | 36.15064 | -5.36392 | 100 ft | 108 kts | 85° |
| 2026-04-27 16:20 | 36.15112 | -5.35084 | 12 ft | 34 kts | 88° |
| 2026-04-27 16:21 | 36.15119 | -5.34889 | 13 ft | 18 kts | 87° |
| 2026-04-27 16:21 | 36.15027 | -5.34718 | 13 ft | 8 kts | 85° |
| 2026-04-27 16:22 | 36.15029 | -5.34678 | 13 ft | 6 kts | 97° |
| 2026-04-27 16:22 | 36.14979 | -5.34688 | 13 ft | 4 kts | 265° |
| 2026-04-27 16:22 | 36.14973 | -5.34712 | 13 ft | 4 kts | 234° |
| 2026-04-27 16:23 | 36.14950 | -5.34729 | 13 ft | 3 kts | 207° |
| 2026-04-27 16:23 | 36.14949 | -5.34729 | 13 ft | 0 kts | 207° |